Flight Track Log - Related Links

Times and Time Zones

All times are in EDT time to prevent confusion due to time zone crossing. See the UPS32 flight status page for this flight to view local times or setup timezone preferences in your user account.

Time Position Orientation Groundspeed Altitude Reporting Facility
EDT Latitude Longitude Course Direction KTS MPH feet Rate Location/Type
Wed 03:50:07 AM 38.1440 -85.7350 163° South 193 222 1,300  Level FlightAware ADS-B
Wed 03:50:32 AM 38.1200 -85.7380 186° South 216 249 2,000 1,418 Climbing FlightAware ADS-B
Wed 03:51:02 AM 38.0880 -85.7430 187° South 253 291 2,600 1,333 Climbing FlightAware ADS-B
Wed 03:51:17 AM 38.0720 -85.7520 204° Southwest 267 307 3,000 2,400 Climbing FlightAware ADS-B
Wed 03:51:32 AM 38.0580 -85.7710 227° Southwest 275 316 3,800 2,850 Climbing FlightAware ADS-B
Wed 03:51:57 AM 38.0450 -85.8070 245° Southwest 281 323 4,900 2,836 Climbing FlightAware ADS-B
Wed 03:52:27 AM 38.0300 -85.8530 248° West 281 323 6,400 2,727 Climbing FlightAware ADS-B
Wed 03:52:52 AM 38.0170 -85.8910 247° West 290 334 7,400 1,964 Climbing FlightAware ADS-B
Wed 03:53:22 AM 38.0000 -85.9380 245° Southwest 313 360 8,200 1,900 Climbing FlightAware ADS-B
Wed 03:53:52 AM 37.9820 -85.9920 247° West 325 374 9,300 2,143 Climbing FlightAware ADS-B
Wed 03:54:32 AM 37.9580 -86.0630 247° West 342 394 10,700 1,725 Climbing FlightAware ADS-B
Wed 03:55:12 AM 37.9300 -86.1420 246° West 377 434 11,600 1,271 Climbing FlightAware ADS-B
Wed 03:55:57 AM 37.9020 -86.2320 249° West 411 473 12,500 900 Climbing FlightAware ADS-B
Wed 03:56:52 AM 37.8940 -86.3630 266° West 427 491 13,100 379 Climbing FlightAware ADS-B
Wed 03:57:32 AM 37.8920 -86.4480 268° West 427 491 13,100  Level FlightAware ADS-B
Wed 03:58:12 AM 37.8890 -86.5330 267° West 427 491 13,100 3,300 Level FlightAware ADS-B
Wed 03:59:12 AM 37.9600 -86.7450 293° West 466 536 18,600 4,200 Climbing FlightAware ADS-B
Wed 03:59:52 AM 37.9760 -86.8520 281° West 466 536 20,100 1,350 Climbing FlightAware ADS-B
Wed 04:00:32 AM 37.9900 -86.9500 280° West 467 537 20,400 225 Climbing FlightAware ADS-B
Wed 04:01:12 AM 38.0030 -87.0420 280° West 467 537 20,400 1,800 Level FlightAware ADS-B
Wed 04:02:02 AM 38.0290 -87.2130 281° West 488 562 23,100 2,400 Climbing FlightAware ADS-B
Wed 04:02:42 AM 38.0460 -87.3260 281° West 493 567 24,000 1,341 Climbing FlightAware ADS-B
Wed 04:03:27 AM 38.0640 -87.4520 280° West 498 573 25,000 1,412 Climbing FlightAware ADS-B
Wed 04:04:07 AM 38.0800 -87.5670 280° West 498 573 26,000 1,500 Climbing FlightAware ADS-B
Wed 04:04:47 AM 38.0970 -87.6850 280° West 498 573 27,000 1,200 Climbing FlightAware ADS-B
Wed 04:05:32 AM 38.1150 -87.8120 280° West 505 581 27,700 847 Climbing FlightAware ADS-B
Wed 04:06:12 AM 38.1310 -87.9270 280° West 513 590 28,200 1,059 Climbing FlightAware ADS-B
Wed 04:06:57 AM 38.1500 -88.0670 280° West 515 593 29,200 1,271 Climbing FlightAware ADS-B
Wed 04:07:37 AM 38.1650 -88.1800 280° West 515 593 30,000 600 Climbing FlightAware ADS-B
Wed 04:08:17 AM 38.1810 -88.3020 280° West 511 588 30,000  Level FlightAware ADS-B
Wed 04:09:02 AM 38.1990 -88.4350 280° West 511 588 30,000  Level FlightAware ADS-B
Wed 04:09:42 AM 38.2150 -88.5500 280° West 510 587 30,000  Level FlightAware ADS-B
Wed 04:10:27 AM 38.2330 -88.6900 279° West 511 588 30,000  Level FlightAware ADS-B
Wed 04:11:07 AM 38.2480 -88.8020 280° West 512 589 30,000  Level FlightAware ADS-B
Wed 04:11:47 AM 38.2640 -88.9250 279° West 514 592 30,000  Level FlightAware ADS-B
Wed 04:12:32 AM 38.2810 -89.0590 279° West 515 593 30,000  Level FlightAware ADS-B
Wed 04:13:12 AM 38.2950 -89.1670 279° West 515 593 30,000  Level FlightAware ADS-B
Wed 04:13:47 AM 38.2910 -89.2720 267° West 514 592 30,000  Level FlightAware ADS-B
Wed 04:14:27 AM 38.2870 -89.3960 268° West 512 589 30,000  Level FlightAware ADS-B
Wed 04:15:17 AM 38.2810 -89.5510 267° West 508 585 30,000  Level FlightAware ADS-B
Wed 04:15:47 AM 38.2770 -89.6410 267° West 507 583 30,000  Level FlightAware ADS-B
Wed 04:16:27 AM 38.2720 -89.7600 267° West 507 583 30,000  Level FlightAware ADS-B
Wed 04:17:12 AM 38.2660 -89.8940 267° West 506 582 30,000  Level FlightAware ADS-B
Wed 04:17:52 AM 38.2610 -90.0130 267° West 507 583 30,000  Level FlightAware ADS-B
Wed 04:18:27 AM 38.2570 -90.1170 267° West 509 586 30,000  Level FlightAware ADS-B
Wed 04:19:12 AM 38.2500 -90.2490 266° West 511 588 30,000 67 Level FlightAware ADS-B
Wed 04:19:57 AM 38.2440 -90.3840 267° West 513 590 30,100 71 Climbing FlightAware ADS-B
Wed 04:20:37 AM 38.2380 -90.5080 267° West 516 594 30,100  Level FlightAware ADS-B
Wed 04:21:22 AM 38.2310 -90.6480 266° West 517 595 30,100  Level FlightAware ADS-B
Wed 04:22:02 AM 38.2250 -90.7700 266° West 517 595 30,100 -71 Level FlightAware ADS-B
Wed 04:22:47 AM 38.2180 -90.9090 266° West 517 595 30,000 -71 Descending FlightAware ADS-B
Wed 04:23:27 AM 38.2110 -91.0270 266° West 516 594 30,000  Level FlightAware ADS-B
Wed 04:24:07 AM 38.2060 -91.1340 267° West 516 594 30,000  Level FlightAware ADS-B
Wed 04:24:47 AM 38.2000 -91.2370 266° West 516 594 30,000  Level FlightAware ADS-B
Wed 04:25:27 AM 38.1940 -91.3400 266° West 516 594 30,000  Level FlightAware ADS-B
Wed 04:26:07 AM 38.1890 -91.4430 266° West 516 594 30,000  Level FlightAware ADS-B
Wed 04:26:57 AM 38.1810 -91.5720 266° West 516 594 30,000  Level FlightAware ADS-B
Wed 04:27:37 AM 38.1760 -91.6750 266° West 516 594 30,000  Level FlightAware ADS-B
Wed 04:28:17 AM 38.1700 -91.7780 266° West 516 594 30,000  Level FlightAware ADS-B
Wed 04:29:07 AM 38.1630 -91.9070 266° West 516 594 30,000  Level FlightAware ADS-B
Wed 04:29:47 AM 38.1570 -92.0100 266° West 516 594 30,000  Level FlightAware ADS-B
Wed 04:30:27 AM 38.1520 -92.1130 266° West 516 594 30,000  Level FlightAware ADS-B
Wed 04:31:07 AM 38.1460 -92.2160 266° West 516 594 30,000 1,412 Level FlightAware ADS-B
Wed 04:31:52 AM 38.1220 -92.5160 264° West 508 585 32,000 1,500 Climbing FlightAware ADS-B
Wed 04:32:27 AM 38.1160 -92.6090 265° West 508 585 32,000  Level FlightAware ADS-B
Wed 04:33:17 AM 38.1070 -92.7360 265° West 508 585 32,000  Level FlightAware ADS-B
Wed 04:33:57 AM 38.1000 -92.8370 265° West 508 585 32,000  Level FlightAware ADS-B
Wed 04:34:37 AM 38.0930 -92.9380 265° West 508 585 32,000  Level FlightAware ADS-B
Wed 04:35:17 AM 38.0860 -93.0390 265° West 508 585 32,000  Level FlightAware ADS-B
Wed 04:36:07 AM 38.0770 -93.1660 265° West 508 585 32,000  Level FlightAware ADS-B
Wed 04:36:47 AM 38.0700 -93.2670 265° West 508 585 32,000  Level FlightAware ADS-B
Wed 04:37:27 AM 38.0630 -93.3680 265° West 508 585 32,000  Level FlightAware ADS-B
Wed 04:38:07 AM 38.0560 -93.4690 265° West 508 585 32,000  Level FlightAware ADS-B
Wed 04:38:47 AM 38.0490 -93.5700 265° West 508 585 32,000  Level FlightAware ADS-B
Wed 04:39:27 AM 38.0420 -93.6710 265° West 508 585 32,000  Level FlightAware ADS-B
Wed 04:40:17 AM 38.0340 -93.7970 265° West 508 585 32,000  Level FlightAware ADS-B
Wed 04:40:57 AM 38.0050 -94.1110 263° West 498 573 32,000  Level FlightAware ADS-B
Wed 04:41:42 AM 37.9950 -94.2360 264° West 496 571 32,000  Level FlightAware ADS-B
Wed 04:42:22 AM 37.9850 -94.3600 264° West 495 570 32,000  Level FlightAware ADS-B
Wed 04:43:02 AM 37.9760 -94.4690 264° West 493 567 32,000  Level FlightAware ADS-B
Wed 04:43:47 AM 37.9660 -94.5950 264° West 492 566 32,000  Level FlightAware ADS-B
Wed 04:44:27 AM 37.9560 -94.7130 264° West 491 565 32,000  Level FlightAware ADS-B
Wed 04:45:07 AM 37.9460 -94.8300 264° West 489 563 32,000  Level FlightAware ADS-B
Wed 04:45:47 AM 37.9360 -94.9410 264° West 488 562 32,000  Level FlightAware ADS-B
Wed 04:46:37 AM 37.9240 -95.0830 264° West 487 560 32,000  Level FlightAware ADS-B
Wed 04:47:32 AM 37.9100 -95.2200 263° West 487 560 32,000  Level FlightAware ADS-B
Wed 04:48:12 AM 37.9010 -95.3160 263° West 487 560 32,000  Level FlightAware ADS-B
Wed 04:48:52 AM 37.8920 -95.4130 263° West 487 560 32,000  Level FlightAware ADS-B
Wed 04:49:32 AM 37.8820 -95.5090 263° West 487 560 32,000  Level FlightAware ADS-B
Wed 04:50:12 AM 37.8730 -95.6050 263° West 487 560 32,000  Level FlightAware ADS-B
Wed 04:51:02 AM 37.8610 -95.7260 263° West 487 560 32,000  Level FlightAware ADS-B
Wed 04:51:42 AM 37.8520 -95.8220 263° West 487 560 32,000  Level FlightAware ADS-B
Wed 04:52:22 AM 37.8420 -95.9180 263° West 487 560 32,000  Level FlightAware ADS-B
Wed 04:53:02 AM 37.8330 -96.0150 263° West 487 560 32,000  Level FlightAware ADS-B
Wed 04:53:42 AM 37.8240 -96.1110 263° West 487 560 32,000  Level FlightAware ADS-B
Wed 04:54:32 AM 37.8120 -96.2310 263° West 487 560 32,000  Level FlightAware ADS-B
Wed 04:55:12 AM 37.7850 -96.5380 264° West 485 558 32,000 63 Level FlightAware ADS-B
Wed 04:56:07 AM 37.7710 -96.6830 263° West 484 557 32,100  Climbing FlightAware ADS-B
Wed 04:56:42 AM 37.7590 -96.7930 262° West 484 557 32,000 -80 Descending FlightAware ADS-B
Wed 04:57:22 AM 37.7480 -96.9050 263° West 483 556 32,000  Level FlightAware ADS-B
Wed 04:58:07 AM 37.7350 -97.0270 262° West 482 555 32,000  Level FlightAware ADS-B
Wed 04:58:57 AM 37.7200 -97.1640 262° West 480 552 32,000  Level FlightAware ADS-B
Wed 04:59:37 AM 37.7090 -97.2740 263° West 479 551 32,000  Level FlightAware ADS-B
Wed 05:00:37 AM 37.6910 -97.4400 262° West 477 549 32,000  Level FlightAware ADS-B
Wed 05:01:17 AM 37.6790 -97.5500 262° West 476 548 32,000  Level FlightAware ADS-B
Wed 05:02:12 AM 37.6620 -97.7030 262° West 474 545 32,000  Level FlightAware ADS-B
Wed 05:03:07 AM 37.6450 -97.8500 262° West 472 543 32,000  Level FlightAware ADS-B
Wed 05:03:47 AM 37.6330 -97.9610 262° West 471 542 32,000  Level FlightAware ADS-B
Wed 05:04:32 AM 37.6190 -98.0780 261° West 471 542 32,000  Level FlightAware ADS-B
Wed 05:05:17 AM 37.6050 -98.2030 262° West 471 542 32,000  Level FlightAware ADS-B
Wed 05:05:57 AM 37.5920 -98.3140 262° West 473 544 32,000  Level FlightAware ADS-B
Wed 05:06:37 AM 37.5810 -98.4040 261° West 474 545 32,000  Level FlightAware ADS-B
Wed 05:07:17 AM 37.5710 -98.4980 262° West 474 545 32,000 80 Level FlightAware ADS-B
Wed 05:07:52 AM 37.5540 -98.6320 261° West 477 549 32,100 67 Climbing FlightAware ADS-B
Wed 05:08:47 AM 37.5390 -98.7630 262° West 477 549 32,100  Level FlightAware ADS-B
Wed 05:09:27 AM 37.5290 -98.8570 262° West 477 549 32,100  Level FlightAware ADS-B
Wed 05:10:07 AM 37.5180 -98.9500 262° West 477 549 32,100  Level FlightAware ADS-B
Wed 05:10:47 AM 37.5080 -99.0440 262° West 477 549 32,100  Level FlightAware ADS-B
Wed 05:11:27 AM 37.4970 -99.1380 262° West 477 549 32,100  Level FlightAware ADS-B
Wed 05:12:17 AM 37.4840 -99.2550 262° West 477 549 32,100  Level FlightAware ADS-B
Wed 05:12:57 AM 37.4740 -99.3480 262° West 477 549 32,100  Level FlightAware ADS-B
Wed 05:13:37 AM 37.4640 -99.4420 262° West 477 549 32,100  Level FlightAware ADS-B
Wed 05:14:17 AM 37.4530 -99.5360 262° West 477 549 32,100  Level FlightAware ADS-B
Wed 05:14:57 AM 37.4430 -99.6290 262° West 477 549 32,100  Level FlightAware ADS-B
Wed 05:15:37 AM 37.4320 -99.7230 262° West 477 549 32,100  Level FlightAware ADS-B
Wed 05:16:27 AM 37.4190 -99.8400 262° West 477 549 32,100  Level FlightAware ADS-B
Wed 05:17:07 AM 37.4090 -99.9330 262° West 477 549 32,100  Level FlightAware ADS-B
Wed 05:17:47 AM 37.3980 -100.0270 262° West 477 549 32,100 -55 Level FlightAware ADS-B
Wed 05:18:56 AM 37.3269 -100.4067 262° West 470 541 32,000 -46 Descending Kansas City Center
Wed 05:19:57 AM 37.3031 -100.5875 261° West 468 539 32,000  Level Kansas City Center
Wed 05:20:57 AM 37.2817 -100.7411 260° West 465 535 32,000  Level Kansas City Center
Wed 05:21:58 AM 37.2600 -100.8947 260° West 464 534 32,000  Level Kansas City Center
Wed 05:22:58 AM 37.2392 -101.0469 260° West 462 532 32,000  Level Kansas City Center
Wed 05:23:59 AM 37.2139 -101.2242 260° West 460 529 32,000  Level Kansas City Center
Wed 05:24:59 AM 37.1925 -101.3758 260° West 461 531 32,000  Level Kansas City Center
Wed 05:26:00 AM 37.1694 -101.5292 259° West 464 534 32,000 50 Level Kansas City Center
Wed 05:27:00 AM 37.1433 -101.7072 260° West 464 534 32,100 50 Climbing Kansas City Center
Wed 05:28:01 AM 37.1217 -101.8597 260° West 464 534 32,100 -52 Level Kansas City Center
Wed 05:28:56 AM 37.0989 -102.0139 260° West 466 536 32,000 -52 Descending Albuquerque Center
Wed 05:29:56 AM 37.0758 -102.1650 259° West 463 533 32,000  Level Albuquerque Center
Wed 05:30:57 AM 37.0533 -102.3161 259° West 462 532 32,000  Level Albuquerque Center
Wed 05:31:57 AM 37.0311 -102.4642 259° West 455 524 32,000  Level Albuquerque Center
Wed 05:32:57 AM 37.0067 -102.6167 259° West 452 520 32,000  Level Albuquerque Center
Wed 05:33:57 AM 36.9808 -102.7881 259° West 449 517 32,000  Level Albuquerque Center
Wed 05:34:58 AM 36.9569 -102.9364 259° West 453 521 32,000 50 Level Albuquerque Center
Wed 05:35:58 AM 36.9336 -103.0839 259° West 452 520 32,100 50 Climbing Albuquerque Center
Wed 05:36:58 AM 36.9056 -103.2594 259° West 458 527 32,100  Level Albuquerque Center
Wed 05:37:58 AM 36.8811 -103.4078 258° West 457 526 32,100 -50 Level Albuquerque Center
Wed 05:38:58 AM 36.8572 -103.5581 259° West 457 526 32,000 -50 Descending Albuquerque Center
Wed 05:39:59 AM 36.8331 -103.7056 258° West 455 524 32,000  Level Albuquerque Center
Wed 05:40:59 AM 36.8042 -103.8772 258° West 451 519 32,000  Level Albuquerque Center
Wed 05:41:59 AM 36.7794 -104.0242 258° West 451 519 32,000  Level Albuquerque Center
Wed 05:42:59 AM 36.7550 -104.1719 258° West 452 520 32,000 50 Level Albuquerque Center
Wed 05:44:00 AM 36.7297 -104.3206 258° West 454 522 32,100  Climbing Albuquerque Center
Wed 05:45:00 AM 36.6992 -104.4947 258° West 458 527 32,000  Descending Albuquerque Center
Wed 05:46:00 AM 36.6736 -104.6378 257° West 458 527 32,100  Climbing Albuquerque Center
Wed 05:47:00 AM 36.6467 -104.7967 258° West 463 533 32,000 -50 Descending Albuquerque Center
Wed 05:48:01 AM 36.6197 -104.9508 258° West 458 527 32,000 50 Level Albuquerque Center
Wed 05:49:01 AM 36.5925 -105.1058 258° West 457 526 32,100  Climbing Albuquerque Center
Wed 05:50:01 AM 36.5636 -105.2636 257° West 460 529 32,000 -50 Descending Albuquerque Center
Wed 05:51:01 AM 36.5372 -105.4128 258° West 460 529 32,000  Level Albuquerque Center
Wed 05:52:02 AM 36.5078 -105.5692 257° West 461 531 32,000  Level Albuquerque Center
Wed 05:53:02 AM 36.4806 -105.7203 257° West 453 521 32,000  Level Albuquerque Center
Wed 05:54:02 AM 36.4514 -105.8778 257° West 446 513 32,000  Level Albuquerque Center
Wed 05:59:37 AM 36.2960 -106.7020 257° West 450 518 32,000  Level FlightAware ADS-B
Wed 06:00:17 AM 36.2760 -106.7980 256° West 450 518 32,000  Level FlightAware ADS-B
Wed 06:00:57 AM 36.2590 -106.8830 256° West 450 518 32,000  Level FlightAware ADS-B
Wed 06:01:37 AM 36.2420 -106.9680 256° West 450 518 32,000  Level FlightAware ADS-B
Wed 06:02:17 AM 36.2250 -107.0530 256° West 450 518 32,000  Level FlightAware ADS-B
Wed 06:03:17 AM 36.1880 -107.2510 257° West 441 507 32,000  Level FlightAware ADS-B
Wed 06:04:02 AM 36.1660 -107.3590 256° West 442 509 32,000  Level FlightAware ADS-B
Wed 06:04:42 AM 36.1470 -107.4600 257° West 444 511 32,000  Level FlightAware ADS-B
Wed 06:05:22 AM 36.1270 -107.5590 256° West 445 512 32,000  Level FlightAware ADS-B
Wed 06:06:07 AM 36.1050 -107.6680 256° West 446 513 32,000  Level FlightAware ADS-B
Wed 06:06:47 AM 36.0850 -107.7670 256° West 446 513 32,000  Level FlightAware ADS-B
Wed 06:07:32 AM 36.0650 -107.8660 256° West 446 513 32,000  Level FlightAware ADS-B
Wed 06:08:12 AM 36.0420 -107.9770 256° West 447 514 32,000  Level FlightAware ADS-B
Wed 06:08:52 AM 36.0220 -108.0760 256° West 447 514 32,000  Level FlightAware ADS-B
Wed 06:09:52 AM 35.9930 -108.2130 255° West 447 514 32,000  Level FlightAware ADS-B
Wed 06:10:32 AM 35.9740 -108.2970 254° West 447 514 32,000  Level FlightAware ADS-B
Wed 06:11:12 AM 35.9560 -108.3810 255° West 447 514 32,000  Level FlightAware ADS-B
Wed 06:11:52 AM 35.9380 -108.4650 255° West 447 514 32,000  Level FlightAware ADS-B
Wed 06:12:32 AM 35.9200 -108.5490 255° West 447 514 32,000  Level FlightAware ADS-B
Wed 06:13:12 AM 35.9020 -108.6330 255° West 447 514 32,000  Level FlightAware ADS-B
Wed 06:14:02 AM 35.8790 -108.7370 255° West 447 514 32,000  Level FlightAware ADS-B
Wed 06:14:42 AM 35.8610 -108.8210 255° West 447 514 32,000  Level FlightAware ADS-B
Wed 06:15:22 AM 35.8420 -108.9050 254° West 447 514 32,000  Level FlightAware ADS-B
Wed 06:16:12 AM 35.8200 -109.0100 256° West 447 514 32,000  Level FlightAware ADS-B
Wed 06:16:52 AM 35.8010 -109.0930 254° West 447 514 32,000  Level FlightAware ADS-B
Wed 06:17:32 AM 35.7830 -109.1770 255° West 447 514 32,000  Level FlightAware ADS-B
Wed 06:18:12 AM 35.7650 -109.2610 255° West 447 514 32,000  Level FlightAware ADS-B
Wed 06:18:52 AM 35.7470 -109.3440 255° West 447 514 32,000  Level FlightAware ADS-B
Wed 06:19:09 AM 35.7000 -109.5814 255° West 447 514 32,000  Level Albuquerque Center
Wed 06:20:09 AM 35.6631 -109.7481 255° West 448 516 32,000  Level Albuquerque Center
Wed 06:21:09 AM 35.6306 -109.8897 254° West 448 516 32,000  Level Albuquerque Center
Wed 06:22:10 AM 35.5972 -110.0306 254° West 449 517 32,000 50 Level Albuquerque Center
Wed 06:23:10 AM 35.5658 -110.1742 255° West 454 522 32,100  Climbing Albuquerque Center
Wed 06:28:52 AM 35.3810 -110.9920 255° West 448 516 32,000 -16 Descending FlightAware ADS-B
Wed 06:29:37 AM 35.3580 -111.0920 254° West 448 516 32,000  Level FlightAware ADS-B
Wed 06:30:32 AM 35.3240 -111.2340 254° West 451 519 32,000  Level FlightAware ADS-B
Wed 06:31:22 AM 35.2980 -111.3380 253° West 451 519 32,000  Level FlightAware ADS-B
Wed 06:31:52 AM 35.2780 -111.4300 255° West 457 526 32,000  Level FlightAware ADS-B
Wed 06:32:32 AM 35.2510 -111.5450 254° West 458 527 32,000  Level FlightAware ADS-B
Wed 06:33:17 AM 35.2270 -111.6450 254° West 461 531 32,000  Level FlightAware ADS-B
Wed 06:34:02 AM 35.1970 -111.7700 254° West 463 533 32,000 60 Level FlightAware ADS-B
Wed 06:34:57 AM 35.1630 -111.9080 253° West 464 534 32,100 63 Climbing FlightAware ADS-B
Wed 06:35:37 AM 35.1400 -112.0040 254° West 465 535 32,100  Level FlightAware ADS-B
Wed 06:36:17 AM 35.1150 -112.1070 254° West 466 536 32,100 -60 Level FlightAware ADS-B
Wed 06:37:17 AM 35.0770 -112.2630 253° West 463 533 32,000 -63 Descending FlightAware ADS-B
Wed 06:37:52 AM 35.0560 -112.3480 253° West 462 532 32,000  Level FlightAware ADS-B
Wed 06:38:42 AM 35.0270 -112.4630 253° West 460 529 32,000  Level FlightAware ADS-B
Wed 06:39:22 AM 34.9910 -112.6110 254° West 459 528 32,000  Level FlightAware ADS-B
Wed 06:40:07 AM 34.9620 -112.7250 253° West 458 527 32,000  Level FlightAware ADS-B
Wed 06:40:47 AM 34.9370 -112.8240 253° West 458 527 32,000  Level FlightAware ADS-B
Wed 06:41:27 AM 34.9130 -112.9200 253° West 456 525 32,000  Level FlightAware ADS-B
Wed 06:42:12 AM 34.8840 -113.0330 253° West 457 526 32,000  Level FlightAware ADS-B
Wed 06:42:52 AM 34.8600 -113.1320 254° West 458 527 32,000  Level FlightAware ADS-B
Wed 06:43:37 AM 34.8310 -113.2430 252° West 461 531 32,000 71 Level FlightAware ADS-B
Wed 06:44:17 AM 34.8060 -113.3420 253° West 462 532 32,100 75 Climbing FlightAware ADS-B
Wed 06:44:57 AM 34.7860 -113.4400 256° West 459 528 32,100 -71 Level FlightAware ADS-B
Wed 06:45:42 AM 34.7740 -113.5580 263° West 460 529 32,000 -71 Descending FlightAware ADS-B
Wed 06:46:22 AM 34.7640 -113.6580 263° West 461 531 32,000  Level FlightAware ADS-B
Wed 06:47:07 AM 34.7510 -113.7770 262° West 464 534 32,000  Level FlightAware ADS-B
Wed 06:47:47 AM 34.7410 -113.8750 263° West 462 532 32,000  Level FlightAware ADS-B
Wed 06:48:27 AM 34.7300 -113.9760 262° West 461 531 32,000  Level FlightAware ADS-B
Wed 06:49:12 AM 34.7170 -114.0960 263° West 461 531 32,000  Level FlightAware ADS-B
Wed 06:49:52 AM 34.7060 -114.1990 263° West 460 529 32,000  Level FlightAware ADS-B
Wed 06:50:37 AM 34.6930 -114.3140 262° West 461 531 32,000  Level FlightAware ADS-B
Wed 06:51:17 AM 34.6820 -114.4150 262° West 463 533 32,000  Level FlightAware ADS-B
Wed 06:51:57 AM 34.6700 -114.5210 262° West 464 534 32,000  Level FlightAware ADS-B
Wed 06:52:42 AM 34.6570 -114.6370 262° West 465 535 32,000  Level FlightAware ADS-B
Wed 06:53:17 AM 34.6470 -114.7300 263° West 466 536 32,000  Level FlightAware ADS-B
Wed 06:54:02 AM 34.6340 -114.8460 262° West 467 537 32,000  Level FlightAware ADS-B
Wed 06:54:47 AM 34.6200 -114.9610 262° West 468 539 32,000 63 Level FlightAware ADS-B
Wed 06:55:37 AM 34.6060 -115.0870 262° West 470 541 32,100 63 Climbing FlightAware ADS-B
Wed 06:56:22 AM 34.5910 -115.2140 262° West 471 542 32,100  Level FlightAware ADS-B
Wed 06:57:07 AM 34.5770 -115.3270 261° West 470 541 32,100 -71 Level FlightAware ADS-B
Wed 06:57:47 AM 34.5650 -115.4290 262° West 469 540 32,000 -71 Descending FlightAware ADS-B
Wed 06:58:32 AM 34.5500 -115.5510 262° West 467 537 32,000  Level FlightAware ADS-B
Wed 06:59:12 AM 34.5370 -115.6570 262° West 467 537 32,000  Level FlightAware ADS-B
Wed 06:59:52 AM 34.5250 -115.7610 262° West 466 536 32,000  Level FlightAware ADS-B
Wed 07:00:37 AM 34.5100 -115.8740 261° West 464 534 32,000  Level FlightAware ADS-B
Wed 07:01:17 AM 34.4980 -115.9770 262° West 466 536 32,000  Level FlightAware ADS-B
Wed 07:02:12 AM 34.4800 -116.1180 261° West 472 543 32,000 60 Level FlightAware ADS-B
Wed 07:02:57 AM 34.4650 -116.2380 261° West 476 548 32,100 71 Climbing FlightAware ADS-B
Wed 07:03:37 AM 34.4530 -116.3360 262° West 477 549 32,100  Level FlightAware ADS-B
Wed 07:04:17 AM 34.4380 -116.4440 260° West 477 549 32,100 -71 Level FlightAware ADS-B
Wed 07:05:02 AM 34.4220 -116.5680 261° West 476 548 32,000 -71 Descending FlightAware ADS-B
Wed 07:05:42 AM 34.4090 -116.6740 262° West 477 549 32,000  Level FlightAware ADS-B
Wed 07:06:17 AM 34.3970 -116.7630 261° West 476 548 32,000  Level FlightAware ADS-B
Wed 07:07:07 AM 34.3800 -116.8920 261° West 477 549 32,000  Level FlightAware ADS-B
Wed 07:07:52 AM 34.3630 -117.0160 261° West 477 549 32,000  Level FlightAware ADS-B
Wed 07:08:32 AM 34.3490 -117.1220 261° West 481 554 32,000 71 Level FlightAware ADS-B
Wed 07:09:17 AM 34.3330 -117.2390 261° West 483 556 32,100 71 Climbing FlightAware ADS-B
Wed 07:09:57 AM 34.3190 -117.3460 261° West 484 557 32,100  Level FlightAware ADS-B
Wed 07:10:37 AM 34.3040 -117.4550 261° West 485 558 32,100  Level FlightAware ADS-B
Wed 07:11:22 AM 34.2870 -117.5760 260° West 485 558 32,100 -71 Level FlightAware ADS-B
Wed 07:12:02 AM 34.2720 -117.6830 260° West 485 558 32,000 -71 Descending FlightAware ADS-B
Wed 07:12:47 AM 34.2550 -117.8030 260° West 486 559 32,000  Level FlightAware ADS-B
Wed 07:13:27 AM 34.2400 -117.9100 260° West 485 558 32,000  Level FlightAware ADS-B
Wed 07:14:07 AM 34.2250 -118.0170 260° West 485 558 32,000  Level FlightAware ADS-B
Wed 07:14:52 AM 34.2080 -118.1350 260° West 484 557 32,000  Level FlightAware ADS-B
Wed 07:15:32 AM 34.1930 -118.2440 261° West 485 558 32,000  Level FlightAware ADS-B
Wed 07:16:17 AM 34.1750 -118.3640 260° West 485 558 32,000  Level FlightAware ADS-B
Wed 07:16:57 AM 34.1600 -118.4700 260° West 484 557 32,000  Level FlightAware ADS-B
Wed 07:17:37 AM 34.1440 -118.5770 260° West 484 557 32,000  Level FlightAware ADS-B
Wed 07:18:22 AM 34.1270 -118.6940 260° West 484 557 32,000  Level FlightAware ADS-B
Wed 07:19:02 AM 34.1110 -118.8000 260° West 484 557 32,000  Level FlightAware ADS-B
Wed 07:19:47 AM 34.0920 -118.9250 260° West 485 558 32,000  Level FlightAware ADS-B
Wed 07:20:27 AM 34.0760 -119.0290 260° West 486 559 32,000  Level FlightAware ADS-B
Wed 07:21:07 AM 34.0600 -119.1360 260° West 487 560 32,000  Level FlightAware ADS-B
Wed 07:21:52 AM 34.0420 -119.2530 260° West 487 560 32,000  Level FlightAware ADS-B
Wed 07:22:32 AM 34.0260 -119.3600 260° West 488 562 32,000  Level FlightAware ADS-B
Wed 07:23:17 AM 34.0070 -119.4830 259° West 489 563 32,000  Level FlightAware ADS-B
Wed 07:23:52 AM 33.9940 -119.5660 259° West 490 564 32,000  Level FlightAware ADS-B
Wed 07:24:37 AM 33.9730 -119.6980 259° West 490 564 32,000  Level FlightAware ADS-B
Wed 07:25:22 AM 33.9550 -119.8160 260° West 491 565 32,000  Level FlightAware ADS-B
Wed 07:26:02 AM 33.9370 -119.9260 259° West 491 565 32,000  Level FlightAware ADS-B
Wed 07:27:27 AM 33.9000 -120.1580 259° West 492 566 32,000  Level FlightAware ADS-B
Wed 07:28:37 AM 33.8700 -120.3440 259° West 495 570 32,000 43 Level FlightAware ADS-B
Wed 07:29:47 AM 33.8400 -120.5280 259° West 497 572 32,100  Climbing FlightAware ADS-B
Wed 07:30:57 AM 33.8070 -120.7240 259° West 498 573 32,000 -41 Descending FlightAware ADS-B
Wed 07:32:12 AM 33.7760 -120.9090 259° West 498 573 32,000  Level FlightAware ADS-B
Wed 07:33:02 AM 33.7530 -121.0470 259° West 499 574 32,000  Level FlightAware ADS-B
Wed 07:33:57 AM 33.7260 -121.2050 258° West 499 574 32,000  Level FlightAware ADS-B
Wed 07:34:37 AM 33.7100 -121.2970 258° West 499 574 32,000  Level FlightAware ADS-B
Wed 07:35:17 AM 33.6940 -121.3900 258° West 499 574 32,000  Level FlightAware ADS-B
Wed 07:36:07 AM 33.6730 -121.5050 258° West 499 574 32,000  Level FlightAware ADS-B
Wed 07:36:47 AM 33.6570 -121.5970 258° West 499 574 32,000  Level FlightAware ADS-B
Wed 07:37:27 AM 33.6410 -121.6890 258° West 499 574 32,000  Level FlightAware ADS-B
Wed 07:38:07 AM 33.6240 -121.7820 258° West 499 574 32,000  Level FlightAware ADS-B
Wed 07:38:47 AM 33.6080 -121.8740 258° West 499 574 32,000  Level FlightAware ADS-B
Wed 07:39:37 AM 33.5880 -121.9890 258° West 499 574 32,000  Level FlightAware ADS-B
Wed 07:40:17 AM 33.5710 -122.0810 258° West 499 574 32,000  Level FlightAware ADS-B
Wed 07:40:57 AM 33.5550 -122.1730 258° West 499 574 32,000  Level FlightAware ADS-B
Wed 07:41:37 AM 33.5390 -122.2650 258° West 499 574 32,000  Level FlightAware ADS-B
Wed 07:42:17 AM 33.5220 -122.3570 258° West 499 574 32,000  Level FlightAware ADS-B
Wed 07:43:07 AM 33.5020 -122.4730 258° West 499 574 32,000 686 Level FlightAware ADS-B
Wed 07:45:12 AM 33.3930 -123.0190 257° West 491 565 34,000 750 Climbing FlightAware ADS-B
Wed 07:45:47 AM 33.3740 -123.1060 255° West 491 565 34,000  Level FlightAware ADS-B
Wed 07:46:37 AM 33.3490 -123.2180 255° West 491 565 34,000  Level FlightAware ADS-B
Wed 07:47:17 AM 33.3290 -123.3070 255° West 491 565 34,000  Level FlightAware ADS-B
Wed 07:47:57 AM 33.3090 -123.3960 255° West 491 565 34,000  Level FlightAware ADS-B
Wed 07:48:37 AM 33.2890 -123.4860 255° West 491 565 34,000  Level FlightAware ADS-B
Wed 07:49:17 AM 33.2690 -123.5750 255° West 491 565 34,000  Level FlightAware ADS-B
Wed 07:50:07 AM 33.2440 -123.6860 255° West 491 565 34,000  Level FlightAware ADS-B
Wed 07:50:47 AM 33.2240 -123.7760 255° West 491 565 34,000  Level FlightAware ADS-B
Wed 07:51:27 AM 33.2040 -123.8650 255° West 491 565 34,000  Level FlightAware ADS-B
Wed 07:52:07 AM 33.1840 -123.9540 255° West 491 565 34,000  Level FlightAware ADS-B
Wed 07:52:47 AM 33.1640 -124.0430 255° West 491 565 34,000  Level FlightAware ADS-B
Wed 07:53:37 AM 33.1390 -124.1540 255° West 491 565 34,000  Level FlightAware ADS-B
Wed 07:54:17 AM 33.1190 -124.2440 255° West 491 565 34,000  Level FlightAware ADS-B
Wed 07:54:57 AM 33.0990 -124.3330 255° West 491 565 34,000  Level FlightAware ADS-B
Wed 07:54:59 AM 33.0667 -124.5167 255° West 472 543 34,000  Level Oakland Oceanic (ODAPS)
Wed 07:57:00 AM 33.0387 -124.6415 255° West  Level FlightAware Approximate
Wed 07:58:00 AM 33.0048 -124.7923 255° West  Level FlightAware Approximate
Wed 07:59:00 AM 32.9707 -124.9429 255° West  Level FlightAware Approximate
Wed 08:00:00 AM 32.9364 -125.0935 255° West  Level FlightAware Approximate
Wed 08:01:00 AM 32.8593 -125.4295 255° West 472 543 34,000  Level FlightAware Transoceanic
Wed 08:02:00 AM 32.8241 -125.5812 255° West 472 543 34,000  Level FlightAware Transoceanic
Wed 08:03:00 AM 32.7887 -125.7328 254° West 472 543 34,000  Level FlightAware Transoceanic
Wed 08:04:00 AM 32.7532 -125.8843 254° West 472 543 34,000  Level FlightAware Transoceanic
Wed 08:05:00 AM 32.7174 -126.0357 254° West 472 543 34,000  Level FlightAware Transoceanic
Wed 08:05:14 AM 32.6833 -126.2167 254° West 475 547 34,000  Level Oakland Oceanic (ODAPS)
Wed 08:06:00 AM 32.6815 -126.1869 254° West 472 543 34,000  Level FlightAware Transoceanic
Wed 08:07:00 AM 32.6454 -126.3381 254° West 472 543 34,000  Level FlightAware Transoceanic
Wed 08:08:00 AM 32.6091 -126.4891 254° West 472 543 34,000  Level FlightAware Transoceanic
Wed 08:09:00 AM 32.5726 -126.6399 254° West 472 543 34,000  Level FlightAware Transoceanic
Wed 08:10:00 AM 32.5360 -126.7907 254° West 472 543 34,000  Level FlightAware Transoceanic
Wed 08:11:00 AM 32.4635 -127.1170 254° West 475 547 34,000  Level FlightAware Transoceanic
Wed 08:12:00 AM 32.4263 -127.2667 254° West 475 547 34,000  Level FlightAware Transoceanic
Wed 08:13:00 AM 32.3888 -127.4162 253° West 475 547 34,000  Level FlightAware Transoceanic
Wed 08:14:00 AM 32.3512 -127.5655 253° West 475 547 34,000  Level FlightAware Transoceanic
Wed 08:15:00 AM 32.3134 -127.7148 253° West 475 547 34,000  Level FlightAware Transoceanic
Wed 08:16:00 AM 32.2755 -127.8639 253° West 475 547 34,000  Level FlightAware Transoceanic
Wed 08:17:00 AM 32.2373 -128.0129 253° West 475 547 34,000  Level FlightAware Transoceanic
Wed 08:18:00 AM 32.1990 -128.1618 253° West 475 547 34,000  Level FlightAware Transoceanic
Wed 08:19:00 AM 32.1605 -128.3106 253° West 475 547 34,000  Level FlightAware Transoceanic
Wed 08:19:17 AM 32.1167 -128.4833 253° West 484 557 34,000  Level Oakland Oceanic (ODAPS)
Wed 08:20:00 AM 32.1218 -128.4592 253° West 475 547 34,000  Level FlightAware Transoceanic
Wed 08:21:00 AM 32.0830 -128.6077 253° West 475 547 34,000  Level FlightAware Transoceanic
Wed 08:22:00 AM 32.0440 -128.7561 253° West 475 547 34,000  Level FlightAware Transoceanic
Wed 08:23:00 AM 32.0048 -128.9043 253° West 475 547 34,000  Level FlightAware Transoceanic
Wed 08:24:00 AM 31.9655 -129.0525 253° West 475 547 34,000  Level FlightAware Transoceanic
Wed 08:25:00 AM 31.8723 -129.4033 252° West 484 557 34,000  Level FlightAware Transoceanic
Wed 08:26:00 AM 31.8309 -129.5561 252° West 484 557 34,000  Level FlightAware Transoceanic
Wed 08:27:00 AM 31.7894 -129.7088 252° West 484 557 34,000  Level FlightAware Transoceanic
Wed 08:28:00 AM 31.7476 -129.8614 252° West 484 557 34,000  Level FlightAware Transoceanic
Wed 08:29:00 AM 31.7057 -130.0139 252° West 484 557 34,000  Level FlightAware Transoceanic
Wed 08:30:00 AM 31.6636 -130.1661 252° West 484 557 34,000  Level FlightAware Transoceanic
Wed 08:31:00 AM 31.6213 -130.3183 252° West 484 557 34,000  Level FlightAware Transoceanic
Wed 08:32:00 AM 31.5788 -130.4703 252° West 484 557 34,000  Level FlightAware Transoceanic
Wed 08:33:00 AM 31.5362 -130.6222 252° West 484 557 34,000  Level FlightAware Transoceanic
Wed 08:33:41 AM 31.5167 -130.7167 251° West 501 577 34,000  Level Oakland Oceanic (ODAPS)
Wed 08:34:00 AM 31.4934 -130.7739 252° West 484 557 34,000  Level FlightAware Transoceanic
Wed 08:35:00 AM 31.4504 -130.9256 252° West 484 557 34,000  Level FlightAware Transoceanic
Wed 08:36:00 AM 31.4072 -131.0770 251° West 484 557 34,000  Level FlightAware Transoceanic
Wed 08:37:00 AM 31.3638 -131.2283 251° West 484 557 34,000  Level FlightAware Transoceanic
Wed 08:38:00 AM 31.3203 -131.3795 251° West 484 557 34,000  Level FlightAware Transoceanic
Wed 08:39:00 AM 31.2406 -131.6625 251° West 501 577 34,000  Level FlightAware Transoceanic
Wed 08:40:00 AM 31.1939 -131.8196 251° West 501 577 34,000  Level FlightAware Transoceanic
Wed 08:41:00 AM 31.1471 -131.9765 251° West 501 577 34,000  Level FlightAware Transoceanic
Wed 08:41:57 AM 31.1000 -132.1333 251° West 470 541 34,000  Level Oakland Oceanic (ODAPS)
Wed 08:42:00 AM 31.1000 -132.1333 251° West 501 577 34,000  Level FlightAware Transoceanic
Wed 08:43:00 AM 31.0542 -132.2890 251° West 501 577 34,000  Level FlightAware Transoceanic
Wed 08:44:00 AM 31.0082 -132.4445 251° West 501 577 34,000  Level FlightAware Transoceanic
Wed 08:45:00 AM 30.9620 -132.5999 251° West 501 577 34,000  Level FlightAware Transoceanic
Wed 08:46:00 AM 30.9157 -132.7551 251° West 501 577 34,000  Level FlightAware Transoceanic
Wed 08:46:51 AM 30.8833 -132.9000 251° West 472 543 34,000  Level Oakland Oceanic (ODAPS)
Wed 08:47:00 AM 30.8691 -132.9101 251° West 501 577 34,000  Level FlightAware Transoceanic
Wed 08:48:00 AM 30.8389 -133.0104 251° West 470 541 34,000  Level FlightAware Transoceanic
Wed 08:49:00 AM 30.7948 -133.1561 251° West 470 541 34,000  Level FlightAware Transoceanic
Wed 08:50:00 AM 30.7506 -133.3016 250° West 470 541 34,000  Level FlightAware Transoceanic
Wed 08:51:00 AM 30.7062 -133.4471 250° West 470 541 34,000  Level FlightAware Transoceanic
Wed 08:52:00 AM 30.6616 -133.5924 250° West 470 541 34,000  Level FlightAware Transoceanic
Wed 08:53:00 AM 30.6171 -133.7683 250° West 472 543 34,000  Level FlightAware Transoceanic
Wed 08:54:00 AM 30.5721 -133.9126 250° West 472 543 34,000  Level FlightAware Transoceanic
Wed 08:55:00 AM 30.5271 -134.0567 250° West 472 543 34,000  Level FlightAware Transoceanic
Wed 08:56:00 AM 30.4818 -134.2007 250° West 472 543 34,000  Level FlightAware Transoceanic
Wed 08:57:00 AM 30.4364 -134.3445 250° West 472 543 34,000  Level FlightAware Transoceanic
Wed 08:58:00 AM 30.3908 -134.4882 250° West 472 543 34,000  Level FlightAware Transoceanic
Wed 08:59:00 AM 30.3451 -134.6318 250° West 472 543 34,000  Level FlightAware Transoceanic
Wed 09:00:00 AM 30.2992 -134.7753 250° West 472 543 34,000  Level FlightAware Transoceanic
Wed 09:00:43 AM 30.2000 -135.0500 250° West 476 548 34,000  Level Oakland Oceanic (ODAPS)
Wed 09:01:00 AM 30.2532 -134.9186 250° West 472 543 34,000  Level FlightAware Transoceanic
Wed 09:02:00 AM 30.2070 -135.0618 249° West 472 543 34,000  Level FlightAware Transoceanic
Wed 09:03:00 AM 30.1606 -135.2048 249° West 472 543 34,000  Level FlightAware Transoceanic
Wed 09:04:00 AM 30.1141 -135.3477 249° West 472 543 34,000  Level FlightAware Transoceanic
Wed 09:05:00 AM 30.0675 -135.4905 249° West 472 543 34,000  Level FlightAware Transoceanic
Wed 09:06:00 AM 30.0206 -135.6331 249° West 472 543 34,000  Level FlightAware Transoceanic
Wed 09:07:00 AM 29.8739 -136.0511 249° West 476 548 34,000  Level FlightAware Transoceanic
Wed 09:08:00 AM 29.8267 -136.1936 249° West 476 548 34,000  Level FlightAware Transoceanic
Wed 09:09:00 AM 29.7794 -136.3359 249° West 476 548 34,000  Level FlightAware Transoceanic
Wed 09:10:00 AM 29.7319 -136.4781 249° West 476 548 34,000  Level FlightAware Transoceanic
Wed 09:11:00 AM 29.6842 -136.6202 249° West 476 548 34,000  Level FlightAware Transoceanic
Wed 09:12:00 AM 29.6364 -136.7621 249° West 476 548 34,000  Level FlightAware Transoceanic
Wed 09:13:00 AM 29.5885 -136.9040 249° West 476 548 34,000  Level FlightAware Transoceanic
Wed 09:14:00 AM 29.5404 -137.0456 249° West 476 548 34,000  Level FlightAware Transoceanic
Wed 09:14:35 AM 29.5167 -137.1333 248° West 485 558 34,000  Level Oakland Oceanic (ODAPS)
Wed 09:15:00 AM 29.4921 -137.1872 249° West 476 548 34,000  Level FlightAware Transoceanic
Wed 09:16:00 AM 29.4437 -137.3286 249° West 476 548 34,000  Level FlightAware Transoceanic
Wed 09:17:00 AM 29.3952 -137.4698 248° West 476 548 34,000  Level FlightAware Transoceanic
Wed 09:18:00 AM 29.3465 -137.6109 248° West 476 548 34,000  Level FlightAware Transoceanic
Wed 09:19:00 AM 29.2976 -137.7519 248° West 476 548 34,000  Level FlightAware Transoceanic
Wed 09:20:00 AM 29.2150 -138.0001 248° West 485 558 34,000  Level FlightAware Transoceanic
Wed 09:21:00 AM 29.1642 -138.1441 248° West 485 558 34,000  Level FlightAware Transoceanic
Wed 09:22:00 AM 29.1132 -138.2879 248° West 485 558 34,000  Level FlightAware Transoceanic
Wed 09:23:00 AM 29.0621 -138.4316 248° West 485 558 34,000  Level FlightAware Transoceanic
Wed 09:24:00 AM 29.0108 -138.5751 248° West 485 558 34,000  Level FlightAware Transoceanic
Wed 09:25:00 AM 28.9594 -138.7185 248° West 485 558 34,000  Level FlightAware Transoceanic
Wed 09:26:00 AM 28.9078 -138.8618 248° West 485 558 34,000  Level FlightAware Transoceanic
Wed 09:27:00 AM 28.8561 -139.0049 248° West 485 558 34,000  Level FlightAware Transoceanic
Wed 09:28:00 AM 28.8042 -139.1478 247° West 485 558 34,000  Level FlightAware Transoceanic
Wed 09:28:26 AM 28.8167 -139.1333 246° West 482 555 34,000  Level Oakland Oceanic (ODAPS)
Wed 09:29:00 AM 28.7522 -139.2906 247° West 485 558 34,000  Level FlightAware Transoceanic
Wed 09:30:00 AM 28.7000 -139.4333 247° West 485 558 34,000  Level FlightAware Transoceanic
Wed 09:30:31 AM 28.7000 -139.4333 247° West 460 529 34,000  Level Oakland Oceanic (ODAPS)
Wed 09:31:00 AM 28.6482 -139.5741 247° West 485 558 34,000  Level FlightAware Transoceanic
Wed 09:32:00 AM 28.5963 -139.7146 247° West 485 558 34,000  Level FlightAware Transoceanic
Wed 09:33:00 AM 28.5442 -139.8551 247° West 485 558 34,000  Level FlightAware Transoceanic
Wed 09:34:00 AM 28.4920 -139.9954 247° West 482 555 34,000  Level FlightAware Transoceanic
Wed 09:35:00 AM 28.4396 -140.1355 247° West 482 555 34,000  Level FlightAware Transoceanic
Wed 09:36:00 AM 28.4053 -140.2271 247° West 460 529 34,000  Level FlightAware Transoceanic
Wed 09:37:00 AM 28.3557 -140.3590 247° West 460 529 34,000  Level FlightAware Transoceanic
Wed 09:38:00 AM 28.3060 -140.4907 247° West 460 529 34,000  Level FlightAware Transoceanic
Wed 09:39:00 AM 28.2562 -140.6223 247° West 460 529 34,000  Level FlightAware Transoceanic
Wed 09:40:00 AM 28.2063 -140.7538 247° West 460 529 34,000  Level FlightAware Transoceanic
Wed 09:41:00 AM 28.1562 -140.8852 247° West 460 529 34,000  Level FlightAware Transoceanic
Wed 09:42:00 AM 28.1060 -141.0165 247° West 460 529 34,000  Level FlightAware Transoceanic
Wed 09:42:18 AM 28.0833 -141.0667 247° West 458 527 34,000  Level Oakland Oceanic (ODAPS)
Wed 09:43:00 AM 28.0557 -141.1476 246° West 460 529 34,000  Level FlightAware Transoceanic
Wed 09:44:00 AM 28.0053 -141.2786 246° West 460 529 34,000  Level FlightAware Transoceanic
Wed 09:45:00 AM 27.9547 -141.4095 246° West 460 529 34,000  Level FlightAware Transoceanic
Wed 09:46:00 AM 27.9040 -141.5402 246° West 460 529 34,000  Level FlightAware Transoceanic
Wed 09:47:00 AM 27.8532 -141.6709 246° West 460 529 34,000  Level FlightAware Transoceanic
Wed 09:48:00 AM 27.7750 -141.8637 246° West 458 527 34,000  Level FlightAware Transoceanic
Wed 09:49:00 AM 27.7231 -141.9961 246° West 458 527 34,000  Level FlightAware Transoceanic
Wed 09:50:00 AM 27.6712 -142.1283 246° West 458 527 34,000  Level FlightAware Transoceanic
Wed 09:51:00 AM 27.6191 -142.2605 246° West 458 527 34,000  Level FlightAware Transoceanic
Wed 09:52:00 AM 27.5669 -142.3925 246° West 458 527 34,000  Level FlightAware Transoceanic
Wed 09:53:00 AM 27.5145 -142.5244 246° West 458 527 34,000  Level FlightAware Transoceanic
Wed 09:54:00 AM 27.4621 -142.6561 246° West 458 527 34,000  Level FlightAware Transoceanic
Wed 09:55:00 AM 27.4095 -142.7878 246° West 458 527 34,000  Level FlightAware Transoceanic
Wed 09:56:00 AM 27.3568 -142.9193 246° West 458 527 34,000  Level FlightAware Transoceanic
Wed 09:56:11 AM 27.3500 -142.9500 246° West 456 525 34,000  Level Oakland Oceanic (ODAPS)
Wed 09:57:00 AM 27.3039 -143.0507 246° West 458 527 34,000  Level FlightAware Transoceanic
Wed 09:58:00 AM 27.2510 -143.1819 246° West 458 527 34,000  Level FlightAware Transoceanic
Wed 09:59:00 AM 27.1979 -143.3131 245° Southwest 458 527 34,000  Level FlightAware Transoceanic
Wed 10:00:00 AM 27.1447 -143.4441 245° Southwest 458 527 34,000  Level FlightAware Transoceanic
Wed 10:01:00 AM 27.0914 -143.5750 245° Southwest 458 527 34,000  Level FlightAware Transoceanic
Wed 10:02:00 AM 27.0327 -143.7290 245° Southwest 456 525 34,000  Level FlightAware Transoceanic
Wed 10:03:00 AM 26.9793 -143.8584 245° Southwest 456 525 34,000  Level FlightAware Transoceanic
Wed 10:04:00 AM 26.9259 -143.9876 245° Southwest 456 525 34,000  Level FlightAware Transoceanic
Wed 10:05:00 AM 26.8724 -144.1168 245° Southwest 456 525 34,000  Level FlightAware Transoceanic
Wed 10:06:00 AM 26.8187 -144.2458 245° Southwest 456 525 34,000  Level FlightAware Transoceanic
Wed 10:07:00 AM 26.7649 -144.3747 245° Southwest 456 525 34,000  Level FlightAware Transoceanic
Wed 10:08:00 AM 26.7111 -144.5035 245° Southwest 456 525 34,000  Level FlightAware Transoceanic
Wed 10:09:00 AM 26.6570 -144.6322 245° Southwest 456 525 34,000  Level FlightAware Transoceanic
Wed 10:10:00 AM 26.6029 -144.7607 245° Southwest 456 525 34,000  Level FlightAware Transoceanic
Wed 10:10:02 AM 26.5833 -144.8167 245° Southwest 452 520 34,000  Level Oakland Oceanic (ODAPS)
Wed 10:11:00 AM 26.5487 -144.8891 245° Southwest 456 525 34,000  Level FlightAware Transoceanic
Wed 10:12:00 AM 26.4943 -145.0174 245° Southwest 456 525 34,000  Level FlightAware Transoceanic
Wed 10:13:00 AM 26.4398 -145.1456 245° Southwest 456 525 34,000  Level FlightAware Transoceanic
Wed 10:14:00 AM 26.3853 -145.2737 245° Southwest 456 525 34,000  Level FlightAware Transoceanic
Wed 10:15:00 AM 26.3306 -145.4016 244° Southwest 456 525 34,000  Level FlightAware Transoceanic
Wed 10:16:00 AM 26.2667 -145.5547 244° Southwest 452 520 34,000  Level FlightAware Transoceanic
Wed 10:17:00 AM 26.2136 -145.6773 244° Southwest 452 520 34,000  Level FlightAware Transoceanic
Wed 10:18:00 AM 26.1603 -145.7998 244° Southwest 452 520 34,000  Level FlightAware Transoceanic
Wed 10:19:00 AM 26.1070 -145.9222 244° Southwest 452 520 34,000  Level FlightAware Transoceanic
Wed 10:20:00 AM 26.0536 -146.0445 244° Southwest 452 520 34,000  Level FlightAware Transoceanic
Wed 10:20:15 AM 26.0000 -146.1667 244° Southwest 456 525 34,000  Level Oakland Oceanic (ODAPS)
Wed 10:21:00 AM 26.0000 -146.1667 244° Southwest 452 520 34,000  Level FlightAware Transoceanic
Wed 10:22:00 AM 25.9419 -146.3007 244° Southwest 452 520 34,000  Level FlightAware Transoceanic
Wed 10:23:00 AM 25.8837 -146.4346 244° Southwest 452 520 34,000  Level FlightAware Transoceanic
Wed 10:23:55 AM 25.7833 -146.6833 244° Southwest 456 525 34,000  Level Oakland Oceanic (ODAPS)
Wed 10:24:00 AM 25.8254 -146.5684 244° Southwest 452 520 34,000  Level FlightAware Transoceanic
Wed 10:25:00 AM 25.7669 -146.7021 244° Southwest 452 520 34,000  Level FlightAware Transoceanic
Wed 10:26:00 AM 25.7083 -146.8356 244° Southwest 452 520 34,000  Level FlightAware Transoceanic
Wed 10:27:00 AM 25.6146 -147.0484 244° Southwest 456 525 34,000  Level FlightAware Transoceanic
Wed 10:28:00 AM 25.5591 -147.1739 244° Southwest 456 525 34,000  Level FlightAware Transoceanic
Wed 10:29:00 AM 25.5035 -147.2993 244° Southwest 456 525 34,000  Level FlightAware Transoceanic
Wed 10:30:00 AM 25.4431 -147.4511 244° Southwest 456 525 34,000  Level FlightAware Transoceanic
Wed 10:31:00 AM 25.3861 -147.5786 244° Southwest 456 525 34,000  Level FlightAware Transoceanic
Wed 10:32:00 AM 25.3289 -147.7060 244° Southwest 456 525 34,000  Level FlightAware Transoceanic
Wed 10:33:00 AM 25.2716 -147.8333 244° Southwest 456 525 34,000  Level FlightAware Transoceanic
Wed 10:34:00 AM 25.2141 -147.9605 243° Southwest 456 525 34,000  Level FlightAware Transoceanic
Wed 10:35:00 AM 25.1566 -148.0876 243° Southwest 456 525 34,000  Level FlightAware Transoceanic
Wed 10:36:00 AM 25.0990 -148.2145 243° Southwest 456 525 34,000  Level FlightAware Transoceanic
Wed 10:37:00 AM 25.0413 -148.3413 243° Southwest 456 525 34,000  Level FlightAware Transoceanic
Wed 10:37:46 AM 24.9667 -148.5167 243° Southwest 452 520 34,000  Level Oakland Oceanic (ODAPS)
Wed 10:38:00 AM 24.9834 -148.4680 243° Southwest 456 525 34,000  Level FlightAware Transoceanic
Wed 10:39:00 AM 24.9255 -148.5946 243° Southwest 456 525 34,000  Level FlightAware Transoceanic
Wed 10:40:00 AM 24.8674 -148.7210 243° Southwest 456 525 34,000  Level FlightAware Transoceanic
Wed 10:41:00 AM 24.8092 -148.8474 243° Southwest 456 525 34,000  Level FlightAware Transoceanic
Wed 10:42:00 AM 24.7510 -148.9736 243° Southwest 456 525 34,000  Level FlightAware Transoceanic
Wed 10:43:00 AM 24.6926 -149.0997 243° Southwest 456 525 34,000  Level FlightAware Transoceanic
Wed 10:44:00 AM 24.6202 -149.2653 243° Southwest 452 520 34,000  Level FlightAware Transoceanic
Wed 10:45:00 AM 24.5621 -149.3897 243° Southwest 452 520 34,000  Level FlightAware Transoceanic
Wed 10:46:00 AM 24.5039 -149.5139 243° Southwest 452 520 34,000  Level FlightAware Transoceanic
Wed 10:47:00 AM 24.4456 -149.6380 243° Southwest 452 520 34,000  Level FlightAware Transoceanic
Wed 10:48:00 AM 24.3872 -149.7621 243° Southwest 452 520 34,000  Level FlightAware Transoceanic
Wed 10:49:00 AM 24.3287 -149.8860 243° Southwest 452 520 34,000  Level FlightAware Transoceanic
Wed 10:50:00 AM 24.2701 -150.0098 243° Southwest 452 520 34,000  Level FlightAware Transoceanic
Wed 10:51:00 AM 24.2113 -150.1334 242° Southwest 452 520 34,000  Level FlightAware Transoceanic
Wed 10:51:38 AM 24.1500 -150.2667 242° Southwest 447 514 34,000  Level Oakland Oceanic (ODAPS)
Wed 10:52:00 AM 24.1525 -150.2570 242° Southwest 452 520 34,000  Level FlightAware Transoceanic
Wed 10:53:00 AM 24.0936 -150.3804 242° Southwest 452 520 34,000  Level FlightAware Transoceanic
Wed 10:54:00 AM 24.0346 -150.5038 242° Southwest 452 520 34,000  Level FlightAware Transoceanic
Wed 10:55:00 AM 23.9755 -150.6270 242° Southwest 452 520 34,000  Level FlightAware Transoceanic
Wed 10:56:00 AM 23.9163 -150.7501 242° Southwest 452 520 34,000  Level FlightAware Transoceanic
Wed 10:57:00 AM 23.8570 -150.8731 242° Southwest 452 520 34,000  Level FlightAware Transoceanic
Wed 10:58:00 AM 23.7572 -151.0821 242° Southwest 447 514 34,000  Level FlightAware Transoceanic
Wed 10:59:00 AM 23.7008 -151.1981 242° Southwest 447 514 34,000  Level FlightAware Transoceanic
Wed 11:00:00 AM 23.6443 -151.3141 242° Southwest 447 514 34,000  Level FlightAware Transoceanic
Wed 11:01:00 AM 23.5876 -151.4300 242° Southwest 447 514 34,000  Level FlightAware Transoceanic
Wed 11:02:00 AM 23.5309 -151.5458 242° Southwest 447 514 34,000  Level FlightAware Transoceanic
Wed 11:03:00 AM 23.4741 -151.6615 242° Southwest 447 514 34,000  Level FlightAware Transoceanic
Wed 11:04:00 AM 23.4172 -151.7770 242° Southwest 447 514 34,000  Level FlightAware Transoceanic
Wed 11:05:00 AM 23.3603 -151.8925 242° Southwest 447 514 34,000  Level FlightAware Transoceanic
Wed 11:05:33 AM 23.3167 -151.9667 242° Southwest 453 521 34,000  Level Oakland Oceanic (ODAPS)
Wed 11:06:00 AM 23.3032 -152.0079 242° Southwest 447 514 34,000  Level FlightAware Transoceanic
Wed 11:07:00 AM 23.2461 -152.1232 242° Southwest 447 514 34,000  Level FlightAware Transoceanic
Wed 11:08:00 AM 23.1888 -152.2384 242° Southwest 447 514 34,000  Level FlightAware Transoceanic
Wed 11:09:00 AM 23.1315 -152.3535 242° Southwest 447 514 34,000  Level FlightAware Transoceanic
Wed 11:10:00 AM 23.0741 -152.4684 241° Southwest 447 514 34,000  Level FlightAware Transoceanic
Wed 11:11:00 AM 23.0167 -152.5833 242° Southwest 447 514 34,000  Level FlightAware Transoceanic
Wed 11:11:03 AM 22.9833 -152.6667 242° Southwest 420 483 34,000  Level Honolulu Center
Wed 11:12:00 AM 22.8993 -152.8206 242° Southwest 453 521 34,000  Level FlightAware Transoceanic
Wed 11:12:03 AM 22.9167 -152.7833 238° Southwest 440 506 34,000  Level Honolulu Center
Wed 11:13:00 AM 22.8404 -152.9391 242° Southwest 453 521 34,000  Level FlightAware Transoceanic
Wed 11:13:03 AM 22.8833 -152.9167 255° West 440 506 34,000  Level Honolulu Center
Wed 11:14:00 AM 22.7815 -153.0575 242° Southwest 453 521 34,000  Level FlightAware Transoceanic
Wed 11:14:03 AM 22.8333 -153.0333 245° Southwest 440 506 34,000  Level Honolulu Center
Wed 11:15:00 AM 22.7225 -153.1758 242° Southwest 453 521 34,000  Level FlightAware Transoceanic
Wed 11:15:03 AM 22.8000 -153.1667 255° West 450 518 34,000  Level Honolulu Center
Wed 11:16:00 AM 22.6634 -153.2939 242° Southwest 453 521 34,000  Level FlightAware Transoceanic
Wed 11:16:03 AM 22.7667 -153.2667 250° West 440 506 34,000  Level Honolulu Center
Wed 11:17:04 AM 22.7167 -153.4333 252° West 450 518 34,000  Level Honolulu Center
Wed 11:18:04 AM 22.6833 -153.5500 253° West 450 518 34,000  Level Honolulu Center
Wed 11:19:04 AM 22.6333 -153.6833 248° West 450 518 34,000  Level Honolulu Center
Wed 11:20:04 AM 22.6000 -153.8167 255° West 450 518 34,000  Level Honolulu Center
Wed 11:21:04 AM 22.5667 -153.9333 253° West 450 518 34,000  Level Honolulu Center
Wed 11:22:04 AM 22.5167 -154.0667 248° West 440 506 34,000  Level Honolulu Center
Wed 11:23:04 AM 22.4833 -154.2000 255° West 450 518 34,000  Level Honolulu Center
Wed 11:24:04 AM 22.4333 -154.3333 248° West 460 529 34,000  Level Honolulu Center
Wed 11:25:04 AM 22.4000 -154.4500 253° West 450 518 34,000  Level Honolulu Center
Wed 11:26:04 AM 22.3667 -154.5833 255° West 450 518 34,000  Level Honolulu Center
Wed 11:27:04 AM 22.3167 -154.7167 248° West 450 518 34,000  Level Honolulu Center
Wed 11:28:05 AM 22.2833 -154.8333 253° West 450 518 34,000  Level Honolulu Center
Wed 11:29:05 AM 22.2333 -154.9667 248° West 450 518 34,000  Level Honolulu Center
Wed 11:30:05 AM 22.2000 -155.1000 255° West 450 518 34,000  Level Honolulu Center
Wed 11:31:05 AM 22.1667 -155.2167 253° West 450 518 34,000  Level Honolulu Center
Wed 11:32:05 AM 22.1167 -155.3500 248° West 450 518 34,000  Level Honolulu Center
Wed 11:33:05 AM 22.0833 -155.4833 255° West 450 518 34,000  Level Honolulu Center
Wed 11:34:05 AM 22.0333 -155.6000 245° Southwest 450 518 34,000  Level Honolulu Center
Wed 11:35:06 AM 22.0000 -155.7333 255° West 450 518 34,000  Level Honolulu Center
Wed 11:36:06 AM 21.9500 -155.8500 245° Southwest 450 518 34,000  Level Honolulu Center
Wed 11:37:06 AM 21.9167 -155.9833 255° West 440 506 34,000  Level Honolulu Center
Wed 11:38:06 AM 21.8667 -156.1167 248° West 440 506 34,000  Level Honolulu Center
Wed 11:39:06 AM 21.8333 -156.2333 253° West 440 506 34,000  Level Honolulu Center
Wed 11:40:06 AM 21.7833 -156.3667 248° West 450 518 34,000  Level Honolulu Center
Wed 11:41:06 AM 21.7500 -156.4833 253° West 450 518 34,000  Level Honolulu Center
Wed 11:42:07 AM 21.7000 -156.6167 248° West 450 518 34,000 -843 Level Honolulu Center
Wed 11:43:07 AM 21.6667 -156.7500 255° West 450 518 32,300 -2,830 Descending Honolulu Center
Wed 11:48:52 AM 21.4220 -157.4900 255° West 427 491 14,900 -2,805 Descending FlightAware ADS-B
Wed 11:49:47 AM 21.3640 -157.5800 235° Southwest 424 488 13,600 -1,943 Descending FlightAware ADS-B
Wed 11:50:37 AM 21.3020 -157.6560 229° Southwest 386 444 11,500 -1,867 Descending FlightAware ADS-B
Wed 11:51:17 AM 21.2590 -157.7090 229° Southwest 363 418 10,800 -750 Descending FlightAware ADS-B
Wed 11:51:57 AM 21.2280 -157.7680 241° Southwest 324 373 10,500 -635 Descending FlightAware ADS-B
Wed 11:52:42 AM 21.1950 -157.8310 241° Southwest 299 344 9,900 -1,040 Descending FlightAware ADS-B
Wed 11:53:12 AM 21.1790 -157.8650 243° Southwest 286 329 9,200 -1,800 Descending FlightAware ADS-B
Wed 11:53:42 AM 21.1660 -157.9120 253° West 272 313 8,100 -1,440 Descending FlightAware ADS-B
Wed 11:54:27 AM 21.1660 -157.9600 270° West 230 265 7,400 -1,350 Descending FlightAware ADS-B
Wed 11:55:02 AM 21.1660 -157.9990 270° West 225 259 6,300 -1,100 Descending FlightAware ADS-B
Wed 11:55:27 AM 21.1660 -158.0270 270° West 225 259 6,300  Level FlightAware ADS-B

Login

Don't have an account? Register now (free) for customized features, flight alerts, and more!